sensor_id;sensor_type;location;lat;lon;timestamp;temperature;humidity
20722;DHT22;10522;52.198;9.890;2023-06-05T00:01:59;11.00;99.90
20722;DHT22;10522;52.198;9.890;2023-06-05T00:04:24;11.00;99.90
20722;DHT22;10522;52.198;9.890;2023-06-05T00:06:50;10.80;99.90
20722;DHT22;10522;52.198;9.890;2023-06-05T00:09:18;10.80;99.90
20722;DHT22;10522;52.198;9.890;2023-06-05T00:11:44;10.70;99.90
20722;DHT22;10522;52.198;9.890;2023-06-05T00:14:10;10.80;99.90
20722;DHT22;10522;52.198;9.890;2023-06-05T00:16:35;10.80;99.90
20722;DHT22;10522;52.198;9.890;2023-06-05T00:19:01;10.80;99.90
20722;DHT22;10522;52.198;9.890;2023-06-05T00:21:27;10.90;99.90
20722;DHT22;10522;52.198;9.890;2023-06-05T00:23:53;10.90;99.90
20722;DHT22;10522;52.198;9.890;2023-06-05T00:26:19;10.90;99.90
20722;DHT22;10522;52.198;9.890;2023-06-05T00:28:44;10.90;99.90
20722;DHT22;10522;52.198;9.890;2023-06-05T00:31:10;10.90;99.90
20722;DHT22;10522;52.198;9.890;2023-06-05T00:33:38;10.90;99.90
20722;DHT22;10522;52.198;9.890;2023-06-05T00:36:04;10.90;99.90
20722;DHT22;10522;52.198;9.890;2023-06-05T00:38:30;10.90;99.90
20722;DHT22;10522;52.198;9.890;2023-06-05T00:40:56;10.80;99.90
20722;DHT22;10522;52.198;9.890;2023-06-05T00:43:21;10.70;99.90
20722;DHT22;10522;52.198;9.890;2023-06-05T00:45:47;10.60;99.90
20722;DHT22;10522;52.198;9.890;2023-06-05T00:48:13;10.50;99.90
20722;DHT22;10522;52.198;9.890;2023-06-05T00:50:39;10.40;99.90
20722;DHT22;10522;52.198;9.890;2023-06-05T00:53:06;10.20;99.90
20722;DHT22;10522;52.198;9.890;2023-06-05T00:55:32;10.30;99.90
20722;DHT22;10522;52.198;9.890;2023-06-05T00:57:58;10.10;99.90
20722;DHT22;10522;52.198;9.890;2023-06-05T01:00:26;10.00;99.90
20722;DHT22;10522;52.198;9.890;2023-06-05T01:02:52;10.20;99.90
20722;DHT22;10522;52.198;9.890;2023-06-05T01:05:19;10.20;99.90
20722;DHT22;10522;52.198;9.890;2023-06-05T01:07:45;10.30;99.90
20722;DHT22;10522;52.198;9.890;2023-06-05T01:10:13;10.20;99.90
20722;DHT22;10522;52.198;9.890;2023-06-05T01:13:00;10.10;99.90
20722;DHT22;10522;52.198;9.890;2023-06-05T01:15:29;10.10;99.90
20722;DHT22;10522;52.198;9.890;2023-06-05T01:17:58;10.10;99.90
20722;DHT22;10522;52.198;9.890;2023-06-05T01:20:34;10.10;99.90
20722;DHT22;10522;52.198;9.890;2023-06-05T01:23:01;10.10;99.90
20722;DHT22;10522;52.198;9.890;2023-06-05T01:25:26;10.20;99.90
20722;DHT22;10522;52.198;9.890;2023-06-05T01:30:46;10.20;99.90
20722;DHT22;10522;52.198;9.890;2023-06-05T01:33:33;10.10;99.90
20722;DHT22;10522;52.198;9.890;2023-06-05T01:36:08;10.10;99.90
20722;DHT22;10522;52.198;9.890;2023-06-05T01:38:36;10.00;99.90
20722;DHT22;10522;52.198;9.890;2023-06-05T01:41:02;10.00;99.90
20722;DHT22;10522;52.198;9.890;2023-06-05T01:43:29;9.90;99.90
20722;DHT22;10522;52.198;9.890;2023-06-05T01:45:56;10.10;99.90
20722;DHT22;10522;52.198;9.890;2023-06-05T01:48:27;10.00;99.90
20722;DHT22;10522;52.198;9.890;2023-06-05T01:50:59;10.00;99.90
20722;DHT22;10522;52.198;9.890;2023-06-05T01:53:26;9.90;99.90
20722;DHT22;10522;52.198;9.890;2023-06-05T01:55:53;9.90;99.90
20722;DHT22;10522;52.198;9.890;2023-06-05T01:58:22;9.80;99.90
20722;DHT22;10522;52.198;9.890;2023-06-05T02:00:48;9.70;99.90
20722;DHT22;10522;52.198;9.890;2023-06-05T02:03:14;9.60;99.90
20722;DHT22;10522;52.198;9.890;2023-06-05T02:05:43;9.50;99.90
20722;DHT22;10522;52.198;9.890;2023-06-05T02:08:09;9.60;99.90
20722;DHT22;10522;52.198;9.890;2023-06-05T02:10:36;9.50;99.90
20722;DHT22;10522;52.198;9.890;2023-06-05T02:13:03;9.50;99.90
20722;DHT22;10522;52.198;9.890;2023-06-05T02:15:29;9.60;99.90
20722;DHT22;10522;52.198;9.890;2023-06-05T02:17:57;9.70;99.90
20722;DHT22;10522;52.198;9.890;2023-06-05T02:20:24;9.70;99.90
20722;DHT22;10522;52.198;9.890;2023-06-05T02:22:50;9.60;99.90
20722;DHT22;10522;52.198;9.890;2023-06-05T02:25:18;9.40;99.90
20722;DHT22;10522;52.198;9.890;2023-06-05T02:27:44;9.40;99.90
20722;DHT22;10522;52.198;9.890;2023-06-05T02:30:10;9.50;99.90
20722;DHT22;10522;52.198;9.890;2023-06-05T02:32:37;9.40;99.90
20722;DHT22;10522;52.198;9.890;2023-06-05T02:35:07;9.40;99.90
20722;DHT22;10522;52.198;9.890;2023-06-05T02:37:33;9.50;99.90
20722;DHT22;10522;52.198;9.890;2023-06-05T02:40:05;9.50;99.90
20722;DHT22;10522;52.198;9.890;2023-06-05T02:42:33;9.30;99.90
20722;DHT22;10522;52.198;9.890;2023-06-05T02:44:59;9.30;99.90
20722;DHT22;10522;52.198;9.890;2023-06-05T02:47:25;9.20;99.90
20722;DHT22;10522;52.198;9.890;2023-06-05T02:49:51;9.10;99.90
20722;DHT22;10522;52.198;9.890;2023-06-05T02:52:16;9.00;99.90
20722;DHT22;10522;52.198;9.890;2023-06-05T02:54:42;9.00;99.90
20722;DHT22;10522;52.198;9.890;2023-06-05T02:57:07;9.10;99.90
20722;DHT22;10522;52.198;9.890;2023-06-05T02:59:34;9.20;99.90
20722;DHT22;10522;52.198;9.890;2023-06-05T03:02:08;9.10;99.90
20722;DHT22;10522;52.198;9.890;2023-06-05T03:04:34;9.10;99.90
20722;DHT22;10522;52.198;9.890;2023-06-05T03:07:00;9.00;99.90
20722;DHT22;10522;52.198;9.890;2023-06-05T03:09:30;8.90;99.90
20722;DHT22;10522;52.198;9.890;2023-06-05T03:11:57;9.00;99.90
20722;DHT22;10522;52.198;9.890;2023-06-05T03:14:23;9.00;99.90
20722;DHT22;10522;52.198;9.890;2023-06-05T03:16:48;9.00;99.90
20722;DHT22;10522;52.198;9.890;2023-06-05T03:19:14;9.00;99.90
20722;DHT22;10522;52.198;9.890;2023-06-05T03:21:40;9.10;99.90
20722;DHT22;10522;52.198;9.890;2023-06-05T03:24:13;9.00;99.90
20722;DHT22;10522;52.198;9.890;2023-06-05T03:26:43;9.00;99.90
20722;DHT22;10522;52.198;9.890;2023-06-05T03:29:10;9.00;99.90
20722;DHT22;10522;52.198;9.890;2023-06-05T03:31:36;9.10;99.90
20722;DHT22;10522;52.198;9.890;2023-06-05T03:34:01;9.20;99.90
20722;DHT22;10522;52.198;9.890;2023-06-05T03:36:29;9.20;99.90
20722;DHT22;10522;52.198;9.890;2023-06-05T03:38:56;9.20;99.90
20722;DHT22;10522;52.198;9.890;2023-06-05T03:41:22;9.20;99.90
20722;DHT22;10522;52.198;9.890;2023-06-05T03:43:48;9.20;99.90
20722;DHT22;10522;52.198;9.890;2023-06-05T03:46:15;9.20;99.90
20722;DHT22;10522;52.198;9.890;2023-06-05T03:48:46;9.20;99.90
20722;DHT22;10522;52.198;9.890;2023-06-05T03:51:14;9.20;99.90
20722;DHT22;10522;52.198;9.890;2023-06-05T03:53:43;9.20;99.90
20722;DHT22;10522;52.198;9.890;2023-06-05T03:56:10;9.20;99.90
20722;DHT22;10522;52.198;9.890;2023-06-05T03:58:36;9.20;99.90
20722;DHT22;10522;52.198;9.890;2023-06-05T04:01:03;9.30;99.90
20722;DHT22;10522;52.198;9.890;2023-06-05T04:03:29;9.20;99.90
20722;DHT22;10522;52.198;9.890;2023-06-05T04:05:55;9.30;99.90
20722;DHT22;10522;52.198;9.890;2023-06-05T04:08:21;9.40;99.90
20722;DHT22;10522;52.198;9.890;2023-06-05T04:10:46;9.40;99.90
20722;DHT22;10522;52.198;9.890;2023-06-05T04:13:12;9.50;99.90
20722;DHT22;10522;52.198;9.890;2023-06-05T04:15:37;9.40;99.90
20722;DHT22;10522;52.198;9.890;2023-06-05T04:18:03;9.40;99.90
20722;DHT22;10522;52.198;9.890;2023-06-05T04:20:29;9.50;99.90
20722;DHT22;10522;52.198;9.890;2023-06-05T04:22:54;9.50;99.90
20722;DHT22;10522;52.198;9.890;2023-06-05T04:25:20;9.60;99.90
20722;DHT22;10522;52.198;9.890;2023-06-05T04:27:48;9.60;99.90
20722;DHT22;10522;52.198;9.890;2023-06-05T04:30:14;9.70;99.90
20722;DHT22;10522;52.198;9.890;2023-06-05T04:32:40;9.70;99.90
20722;DHT22;10522;52.198;9.890;2023-06-05T04:35:08;9.80;99.90
20722;DHT22;10522;52.198;9.890;2023-06-05T04:37:37;9.90;99.90
20722;DHT22;10522;52.198;9.890;2023-06-05T04:40:04;10.00;99.90
20722;DHT22;10522;52.198;9.890;2023-06-05T04:42:35;10.10;99.90
20722;DHT22;10522;52.198;9.890;2023-06-05T04:45:03;10.10;99.90
20722;DHT22;10522;52.198;9.890;2023-06-05T04:47:30;10.20;99.90
20722;DHT22;10522;52.198;9.890;2023-06-05T04:50:01;10.20;99.90
20722;DHT22;10522;52.198;9.890;2023-06-05T04:52:30;10.40;99.90
20722;DHT22;10522;52.198;9.890;2023-06-05T04:54:56;10.40;99.90
20722;DHT22;10522;52.198;9.890;2023-06-05T04:57:22;10.40;99.90
20722;DHT22;10522;52.198;9.890;2023-06-05T04:59:51;10.50;99.90
20722;DHT22;10522;52.198;9.890;2023-06-05T05:02:17;10.60;99.90
20722;DHT22;10522;52.198;9.890;2023-06-05T05:04:43;10.70;99.90
20722;DHT22;10522;52.198;9.890;2023-06-05T05:07:08;10.70;99.90
20722;DHT22;10522;52.198;9.890;2023-06-05T05:09:40;10.70;99.90
20722;DHT22;10522;52.198;9.890;2023-06-05T05:12:06;10.70;99.90
20722;DHT22;10522;52.198;9.890;2023-06-05T05:14:32;10.80;99.90
20722;DHT22;10522;52.198;9.890;2023-06-05T05:16:58;10.80;99.90
20722;DHT22;10522;52.198;9.890;2023-06-05T05:19:24;10.90;99.90
20722;DHT22;10522;52.198;9.890;2023-06-05T05:21:49;10.80;99.90
20722;DHT22;10522;52.198;9.890;2023-06-05T05:24:15;10.90;99.90
20722;DHT22;10522;52.198;9.890;2023-06-05T05:26:41;11.00;99.90
20722;DHT22;10522;52.198;9.890;2023-06-05T05:29:07;11.00;99.90
20722;DHT22;10522;52.198;9.890;2023-06-05T05:31:32;11.10;99.90
20722;DHT22;10522;52.198;9.890;2023-06-05T05:33:58;11.30;99.90
20722;DHT22;10522;52.198;9.890;2023-06-05T05:36:24;11.40;99.90
20722;DHT22;10522;52.198;9.890;2023-06-05T05:38:50;11.50;99.90
20722;DHT22;10522;52.198;9.890;2023-06-05T05:41:16;11.70;99.90
20722;DHT22;10522;52.198;9.890;2023-06-05T05:43:42;11.90;99.90
20722;DHT22;10522;52.198;9.890;2023-06-05T05:46:07;11.90;99.90
20722;DHT22;10522;52.198;9.890;2023-06-05T05:48:35;12.00;99.90
20722;DHT22;10522;52.198;9.890;2023-06-05T05:51:01;12.10;99.90
20722;DHT22;10522;52.198;9.890;2023-06-05T05:53:27;12.30;99.90
20722;DHT22;10522;52.198;9.890;2023-06-05T05:55:52;12.60;99.90
20722;DHT22;10522;52.198;9.890;2023-06-05T05:58:19;12.70;99.90
20722;DHT22;10522;52.198;9.890;2023-06-05T06:00:45;12.80;99.90
20722;DHT22;10522;52.198;9.890;2023-06-05T06:03:10;12.90;99.90
20722;DHT22;10522;52.198;9.890;2023-06-05T06:05:36;13.00;99.90
20722;DHT22;10522;52.198;9.890;2023-06-05T06:08:03;13.20;99.90
20722;DHT22;10522;52.198;9.890;2023-06-05T06:10:29;13.30;99.90
20722;DHT22;10522;52.198;9.890;2023-06-05T06:12:55;13.60;99.90
20722;DHT22;10522;52.198;9.890;2023-06-05T06:15:22;13.60;99.90
20722;DHT22;10522;52.198;9.890;2023-06-05T06:17:47;13.90;99.90
20722;DHT22;10522;52.198;9.890;2023-06-05T06:20:13;14.10;99.90
20722;DHT22;10522;52.198;9.890;2023-06-05T06:22:39;14.20;99.90
20722;DHT22;10522;52.198;9.890;2023-06-05T06:25:06;14.40;99.90
20722;DHT22;10522;52.198;9.890;2023-06-05T06:27:32;14.40;99.90
20722;DHT22;10522;52.198;9.890;2023-06-05T06:29:57;14.70;99.90
20722;DHT22;10522;52.198;9.890;2023-06-05T06:32:24;15.00;99.90
20722;DHT22;10522;52.198;9.890;2023-06-05T06:34:51;15.20;99.90
20722;DHT22;10522;52.198;9.890;2023-06-05T06:37:19;15.50;99.90
20722;DHT22;10522;52.198;9.890;2023-06-05T06:39:46;15.50;99.90
20722;DHT22;10522;52.198;9.890;2023-06-05T06:42:12;15.70;99.90
20722;DHT22;10522;52.198;9.890;2023-06-05T06:44:38;15.70;99.90
20722;DHT22;10522;52.198;9.890;2023-06-05T06:47:04;16.00;99.90
20722;DHT22;10522;52.198;9.890;2023-06-05T06:49:30;16.20;99.90
20722;DHT22;10522;52.198;9.890;2023-06-05T06:51:56;16.40;99.90
20722;DHT22;10522;52.198;9.890;2023-06-05T06:54:22;16.50;99.90
20722;DHT22;10522;52.198;9.890;2023-06-05T06:56:48;16.80;99.90
20722;DHT22;10522;52.198;9.890;2023-06-05T06:59:15;16.80;99.90
20722;DHT22;10522;52.198;9.890;2023-06-05T07:01:43;17.10;99.90
20722;DHT22;10522;52.198;9.890;2023-06-05T07:04:16;17.00;99.90
20722;DHT22;10522;52.198;9.890;2023-06-05T07:06:47;17.20;99.90
20722;DHT22;10522;52.198;9.890;2023-06-05T07:09:13;17.50;99.90
20722;DHT22;10522;52.198;9.890;2023-06-05T07:11:39;17.40;99.90
20722;DHT22;10522;52.198;9.890;2023-06-05T07:14:04;17.60;99.90
20722;DHT22;10522;52.198;9.890;2023-06-05T07:16:31;17.70;99.90
20722;DHT22;10522;52.198;9.890;2023-06-05T07:18:56;17.70;99.90
20722;DHT22;10522;52.198;9.890;2023-06-05T07:21:22;17.90;99.90
20722;DHT22;10522;52.198;9.890;2023-06-05T07:23:48;18.10;99.90
20722;DHT22;10522;52.198;9.890;2023-06-05T07:26:19;18.10;99.90
20722;DHT22;10522;52.198;9.890;2023-06-05T07:28:45;18.20;99.90
20722;DHT22;10522;52.198;9.890;2023-06-05T07:31:13;18.20;99.90
20722;DHT22;10522;52.198;9.890;2023-06-05T07:33:38;17.80;99.90
20722;DHT22;10522;52.198;9.890;2023-06-05T07:36:04;18.20;99.90
20722;DHT22;10522;52.198;9.890;2023-06-05T07:38:30;18.50;99.90
20722;DHT22;10522;52.198;9.890;2023-06-05T07:40:56;18.40;99.90
20722;DHT22;10522;52.198;9.890;2023-06-05T07:43:27;18.10;99.90
20722;DHT22;10522;52.198;9.890;2023-06-05T07:45:53;18.40;99.90
20722;DHT22;10522;52.198;9.890;2023-06-05T07:48:19;18.60;99.90
20722;DHT22;10522;52.198;9.890;2023-06-05T07:50:45;18.90;99.90
20722;DHT22;10522;52.198;9.890;2023-06-05T07:53:11;19.40;99.90
20722;DHT22;10522;52.198;9.890;2023-06-05T07:55:37;19.50;99.90
20722;DHT22;10522;52.198;9.890;2023-06-05T07:58:02;19.20;99.90
20722;DHT22;10522;52.198;9.890;2023-06-05T08:00:28;19.30;99.90
20722;DHT22;10522;52.198;9.890;2023-06-05T08:02:54;19.50;99.90
20722;DHT22;10522;52.198;9.890;2023-06-05T08:05:20;19.20;99.90
20722;DHT22;10522;52.198;9.890;2023-06-05T08:07:46;19.10;99.90
20722;DHT22;10522;52.198;9.890;2023-06-05T08:10:12;19.40;99.90
20722;DHT22;10522;52.198;9.890;2023-06-05T08:12:38;19.40;99.90
20722;DHT22;10522;52.198;9.890;2023-06-05T08:15:04;19.40;99.90
20722;DHT22;10522;52.198;9.890;2023-06-05T08:17:31;19.80;99.90
20722;DHT22;10522;52.198;9.890;2023-06-05T08:19:56;20.10;99.90
20722;DHT22;10522;52.198;9.890;2023-06-05T08:22:22;20.30;99.90
20722;DHT22;10522;52.198;9.890;2023-06-05T08:24:48;20.40;99.90
20722;DHT22;10522;52.198;9.890;2023-06-05T08:27:17;20.80;99.90
20722;DHT22;10522;52.198;9.890;2023-06-05T08:29:42;20.90;99.90
20722;DHT22;10522;52.198;9.890;2023-06-05T08:32:08;21.00;99.90
20722;DHT22;10522;52.198;9.890;2023-06-05T08:34:34;20.70;99.90
20722;DHT22;10522;52.198;9.890;2023-06-05T08:37:00;20.50;99.90
20722;DHT22;10522;52.198;9.890;2023-06-05T08:39:26;20.80;99.90
20722;DHT22;10522;52.198;9.890;2023-06-05T08:41:57;20.90;99.90
20722;DHT22;10522;52.198;9.890;2023-06-05T08:44:27;21.30;99.90
20722;DHT22;10522;52.198;9.890;2023-06-05T08:46:59;20.90;99.90
20722;DHT22;10522;52.198;9.890;2023-06-05T08:49:27;21.10;99.90
20722;DHT22;10522;52.198;9.890;2023-06-05T08:52:02;21.30;99.90
20722;DHT22;10522;52.198;9.890;2023-06-05T08:54:31;21.20;99.90
20722;DHT22;10522;52.198;9.890;2023-06-05T08:56:59;21.30;99.90
20722;DHT22;10522;52.198;9.890;2023-06-05T08:59:26;21.60;99.90
20722;DHT22;10522;52.198;9.890;2023-06-05T09:01:51;21.70;99.90
20722;DHT22;10522;52.198;9.890;2023-06-05T09:04:17;21.70;99.90
20722;DHT22;10522;52.198;9.890;2023-06-05T09:06:46;21.80;99.90
20722;DHT22;10522;52.198;9.890;2023-06-05T09:09:17;21.60;99.90
20722;DHT22;10522;52.198;9.890;2023-06-05T09:11:43;21.70;99.90
20722;DHT22;10522;52.198;9.890;2023-06-05T09:14:09;21.80;99.90
20722;DHT22;10522;52.198;9.890;2023-06-05T09:16:35;21.90;99.90
20722;DHT22;10522;52.198;9.890;2023-06-05T09:19:03;22.20;99.90
20722;DHT22;10522;52.198;9.890;2023-06-05T09:21:29;22.20;99.90
20722;DHT22;10522;52.198;9.890;2023-06-05T09:24:17;22.10;99.90
20722;DHT22;10522;52.198;9.890;2023-06-05T09:26:52;22.00;99.90
20722;DHT22;10522;52.198;9.890;2023-06-05T09:29:28;22.10;99.90
20722;DHT22;10522;52.198;9.890;2023-06-05T09:31:57;22.10;99.90
20722;DHT22;10522;52.198;9.890;2023-06-05T09:34:39;22.30;99.90
20722;DHT22;10522;52.198;9.890;2023-06-05T09:37:10;22.50;99.90
20722;DHT22;10522;52.198;9.890;2023-06-05T09:39:42;22.70;99.90
20722;DHT22;10522;52.198;9.890;2023-06-05T09:42:12;23.00;99.90
20722;DHT22;10522;52.198;9.890;2023-06-05T09:44:37;22.70;99.90
20722;DHT22;10522;52.198;9.890;2023-06-05T09:47:06;22.70;99.90
20722;DHT22;10522;52.198;9.890;2023-06-05T09:49:47;22.70;99.90
20722;DHT22;10522;52.198;9.890;2023-06-05T09:52:14;23.00;99.90
20722;DHT22;10522;52.198;9.890;2023-06-05T09:54:44;23.10;99.90
20722;DHT22;10522;52.198;9.890;2023-06-05T09:57:12;23.00;99.90
20722;DHT22;10522;52.198;9.890;2023-06-05T09:59:50;23.10;99.90
20722;DHT22;10522;52.198;9.890;2023-06-05T10:02:17;23.10;99.90
20722;DHT22;10522;52.198;9.890;2023-06-05T10:05:00;23.10;99.90
20722;DHT22;10522;52.198;9.890;2023-06-05T10:07:28;23.20;99.90
20722;DHT22;10522;52.198;9.890;2023-06-05T10:09:56;23.50;99.90
20722;DHT22;10522;52.198;9.890;2023-06-05T10:12:24;23.40;99.90
20722;DHT22;10522;52.198;9.890;2023-06-05T10:14:52;23.20;99.90
20722;DHT22;10522;52.198;9.890;2023-06-05T10:17:21;23.40;99.90
20722;DHT22;10522;52.198;9.890;2023-06-05T10:19:46;23.70;99.90
20722;DHT22;10522;52.198;9.890;2023-06-05T10:22:12;23.90;99.90
20722;DHT22;10522;52.198;9.890;2023-06-05T10:24:46;24.30;99.90
20722;DHT22;10522;52.198;9.890;2023-06-05T10:39:22;24.10;99.90
20722;DHT22;10522;52.198;9.890;2023-06-05T10:41:51;24.40;99.90
20722;DHT22;10522;52.198;9.890;2023-06-05T10:44:16;24.80;99.90
20722;DHT22;10522;52.198;9.890;2023-06-05T10:46:42;24.80;99.90
20722;DHT22;10522;52.198;9.890;2023-06-05T10:49:16;25.10;99.90
20722;DHT22;10522;52.198;9.890;2023-06-05T10:51:47;24.90;99.90
20722;DHT22;10522;52.198;9.890;2023-06-05T10:54:15;24.60;99.90
20722;DHT22;10522;52.198;9.890;2023-06-05T10:57:01;24.80;99.90
20722;DHT22;10522;52.198;9.890;2023-06-05T10:59:36;25.00;99.90
20722;DHT22;10522;52.198;9.890;2023-06-05T11:07:18;25.10;99.90
20722;DHT22;10522;52.198;9.890;2023-06-05T11:15:08;25.20;99.90
20722;DHT22;10522;52.198;9.890;2023-06-05T11:17:35;25.20;99.90
20722;DHT22;10522;52.198;9.890;2023-06-05T11:20:05;25.10;99.90
20722;DHT22;10522;52.198;9.890;2023-06-05T11:22:32;25.20;99.90
20722;DHT22;10522;52.198;9.890;2023-06-05T11:27:44;25.20;99.90
20722;DHT22;10522;52.198;9.890;2023-06-05T11:30:14;25.20;99.90
20722;DHT22;10522;52.198;9.890;2023-06-05T11:32:40;24.90;99.90
20722;DHT22;10522;52.198;9.890;2023-06-05T11:35:06;24.90;99.90
20722;DHT22;10522;52.198;9.890;2023-06-05T11:37:34;25.20;99.90
20722;DHT22;10522;52.198;9.890;2023-06-05T11:40:03;24.90;99.90
20722;DHT22;10522;52.198;9.890;2023-06-05T11:42:36;25.20;99.90
20722;DHT22;10522;52.198;9.890;2023-06-05T11:45:02;25.50;99.90
20722;DHT22;10522;52.198;9.890;2023-06-05T11:47:28;25.80;99.90
20722;DHT22;10522;52.198;9.890;2023-06-05T11:50:13;25.90;99.90
20722;DHT22;10522;52.198;9.890;2023-06-05T11:52:40;26.10;99.90
20722;DHT22;10522;52.198;9.890;2023-06-05T11:55:19;26.20;99.90
20722;DHT22;10522;52.198;9.890;2023-06-05T11:57:47;26.10;99.90
20722;DHT22;10522;52.198;9.890;2023-06-05T12:00:14;25.90;99.90
20722;DHT22;10522;52.198;9.890;2023-06-05T12:02:42;25.60;99.90
20722;DHT22;10522;52.198;9.890;2023-06-05T12:05:08;25.50;99.90
20722;DHT22;10522;52.198;9.890;2023-06-05T12:07:34;25.70;99.90
20722;DHT22;10522;52.198;9.890;2023-06-05T12:10:06;25.80;99.90
20722;DHT22;10522;52.198;9.890;2023-06-05T12:12:33;25.80;99.90
20722;DHT22;10522;52.198;9.890;2023-06-05T12:15:18;25.70;99.90
20722;DHT22;10522;52.198;9.890;2023-06-05T12:17:51;26.00;99.90
20722;DHT22;10522;52.198;9.890;2023-06-05T12:20:18;25.90;99.90
20722;DHT22;10522;52.198;9.890;2023-06-05T12:22:44;26.20;99.90
20722;DHT22;10522;52.198;9.890;2023-06-05T12:25:20;26.10;99.90
20722;DHT22;10522;52.198;9.890;2023-06-05T12:27:47;25.90;99.90
20722;DHT22;10522;52.198;9.890;2023-06-05T12:30:13;25.80;99.90
20722;DHT22;10522;52.198;9.890;2023-06-05T12:32:43;26.10;99.90
20722;DHT22;10522;52.198;9.890;2023-06-05T12:35:19;26.10;99.90
20722;DHT22;10522;52.198;9.890;2023-06-05T12:37:45;26.10;99.90
20722;DHT22;10522;52.198;9.890;2023-06-05T12:40:13;26.30;99.90
20722;DHT22;10522;52.198;9.890;2023-06-05T12:42:40;26.00;99.90
20722;DHT22;10522;52.198;9.890;2023-06-05T12:45:07;25.90;99.90
20722;DHT22;10522;52.198;9.890;2023-06-05T12:47:39;26.10;99.90
20722;DHT22;10522;52.198;9.890;2023-06-05T12:50:06;26.20;99.90
20722;DHT22;10522;52.198;9.890;2023-06-05T12:52:33;26.50;99.90
20722;DHT22;10522;52.198;9.890;2023-06-05T12:55:00;26.30;99.90
20722;DHT22;10522;52.198;9.890;2023-06-05T12:57:26;26.40;99.90
20722;DHT22;10522;52.198;9.890;2023-06-05T12:59:53;26.60;99.90
20722;DHT22;10522;52.198;9.890;2023-06-05T13:02:20;26.20;99.90
20722;DHT22;10522;52.198;9.890;2023-06-05T13:04:46;26.20;99.90
20722;DHT22;10522;52.198;9.890;2023-06-05T13:07:11;26.30;99.90
20722;DHT22;10522;52.198;9.890;2023-06-05T13:09:38;26.60;99.90
20722;DHT22;10522;52.198;9.890;2023-06-05T13:12:04;26.70;99.90
20722;DHT22;10522;52.198;9.890;2023-06-05T13:14:30;26.50;99.90
20722;DHT22;10522;52.198;9.890;2023-06-05T13:16:57;26.80;99.90
20722;DHT22;10522;52.198;9.890;2023-06-05T13:19:23;27.00;99.90
20722;DHT22;10522;52.198;9.890;2023-06-05T13:21:49;27.40;99.90
20722;DHT22;10522;52.198;9.890;2023-06-05T13:24:15;27.20;99.90
20722;DHT22;10522;52.198;9.890;2023-06-05T13:26:40;26.90;99.90
20722;DHT22;10522;52.198;9.890;2023-06-05T13:29:09;26.90;98.80
20722;DHT22;10522;52.198;9.890;2023-06-05T13:31:35;27.20;99.90
20722;DHT22;10522;52.198;9.890;2023-06-05T13:34:01;27.10;99.90
20722;DHT22;10522;52.198;9.890;2023-06-05T13:36:27;27.00;99.40
20722;DHT22;10522;52.198;9.890;2023-06-05T13:38:53;26.70;99.10
20722;DHT22;10522;52.198;9.890;2023-06-05T13:41:18;26.90;99.90
20722;DHT22;10522;52.198;9.890;2023-06-05T13:43:44;27.00;99.90
20722;DHT22;10522;52.198;9.890;2023-06-05T13:46:10;26.90;99.30
20722;DHT22;10522;52.198;9.890;2023-06-05T13:48:36;26.80;98.60
20722;DHT22;10522;52.198;9.890;2023-06-05T13:51:03;27.30;99.90
20722;DHT22;10522;52.198;9.890;2023-06-05T13:53:29;27.30;99.90
20722;DHT22;10522;52.198;9.890;2023-06-05T13:56:03;27.20;99.90
20722;DHT22;10522;52.198;9.890;2023-06-05T13:58:28;27.20;99.90
20722;DHT22;10522;52.198;9.890;2023-06-05T14:00:54;27.30;99.90
20722;DHT22;10522;52.198;9.890;2023-06-05T14:03:20;27.30;99.90
20722;DHT22;10522;52.198;9.890;2023-06-05T14:05:46;27.50;99.90
20722;DHT22;10522;52.198;9.890;2023-06-05T14:08:11;27.50;99.00
20722;DHT22;10522;52.198;9.890;2023-06-05T14:10:37;27.40;99.50
20722;DHT22;10522;52.198;9.890;2023-06-05T14:13:03;27.40;99.20
20722;DHT22;10522;52.198;9.890;2023-06-05T14:15:31;27.10;99.10
20722;DHT22;10522;52.198;9.890;2023-06-05T14:17:59;26.80;99.30
20722;DHT22;10522;52.198;9.890;2023-06-05T14:20:25;26.30;98.50
20722;DHT22;10522;52.198;9.890;2023-06-05T14:22:51;26.80;99.90
20722;DHT22;10522;52.198;9.890;2023-06-05T14:25:17;27.00;99.90
20722;DHT22;10522;52.198;9.890;2023-06-05T14:27:43;26.80;98.70
20722;DHT22;10522;52.198;9.890;2023-06-05T14:30:09;26.80;99.30
20722;DHT22;10522;52.198;9.890;2023-06-05T14:32:39;26.90;99.90
20722;DHT22;10522;52.198;9.890;2023-06-05T14:35:05;27.50;99.20
20722;DHT22;10522;52.198;9.890;2023-06-05T14:37:30;27.40;99.20
20722;DHT22;10522;52.198;9.890;2023-06-05T14:39:56;27.60;99.90
20722;DHT22;10522;52.198;9.890;2023-06-05T14:42:22;27.90;99.90
20722;DHT22;10522;52.198;9.890;2023-06-05T14:44:49;27.50;98.80
20722;DHT22;10522;52.198;9.890;2023-06-05T14:47:14;27.30;99.40
20722;DHT22;10522;52.198;9.890;2023-06-05T14:49:40;27.40;99.50
20722;DHT22;10522;52.198;9.890;2023-06-05T14:52:06;27.50;98.40
20722;DHT22;10522;52.198;9.890;2023-06-05T14:54:31;27.60;98.70
20722;DHT22;10522;52.198;9.890;2023-06-05T14:56:57;27.80;99.90
20722;DHT22;10522;52.198;9.890;2023-06-05T14:59:23;27.70;98.80
20722;DHT22;10522;52.198;9.890;2023-06-05T15:01:48;27.40;99.10
20722;DHT22;10522;52.198;9.890;2023-06-05T15:04:14;27.60;99.20
20722;DHT22;10522;52.198;9.890;2023-06-05T15:06:40;27.20;98.20
20722;DHT22;10522;52.198;9.890;2023-06-05T15:09:06;27.40;98.60
20722;DHT22;10522;52.198;9.890;2023-06-05T15:11:32;27.40;99.90
20722;DHT22;10522;52.198;9.890;2023-06-05T15:14:00;27.60;97.70
20722;DHT22;10522;52.198;9.890;2023-06-05T15:16:25;27.40;98.90
20722;DHT22;10522;52.198;9.890;2023-06-05T15:18:52;27.40;99.40
20722;DHT22;10522;52.198;9.890;2023-06-05T15:21:18;27.50;99.90
20722;DHT22;10522;52.198;9.890;2023-06-05T15:23:44;27.50;99.70
20722;DHT22;10522;52.198;9.890;2023-06-05T15:26:10;27.30;98.20
20722;DHT22;10522;52.198;9.890;2023-06-05T15:28:35;27.40;99.90
20722;DHT22;10522;52.198;9.890;2023-06-05T15:31:01;27.30;98.60
20722;DHT22;10522;52.198;9.890;2023-06-05T15:33:26;26.90;98.10
20722;DHT22;10522;52.198;9.890;2023-06-05T15:35:52;26.90;98.10
20722;DHT22;10522;52.198;9.890;2023-06-05T15:38:17;27.30;99.60
20722;DHT22;10522;52.198;9.890;2023-06-05T15:40:44;27.70;97.50
20722;DHT22;10522;52.198;9.890;2023-06-05T15:43:10;27.40;99.90
20722;DHT22;10522;52.198;9.890;2023-06-05T15:45:37;27.60;98.60
20722;DHT22;10522;52.198;9.890;2023-06-05T15:48:03;27.80;99.90
20722;DHT22;10522;52.198;9.890;2023-06-05T15:50:29;27.40;98.30
20722;DHT22;10522;52.198;9.890;2023-06-05T15:52:55;27.20;98.80
20722;DHT22;10522;52.198;9.890;2023-06-05T15:55:20;27.10;98.00
20722;DHT22;10522;52.198;9.890;2023-06-05T15:57:46;27.20;98.90
20722;DHT22;10522;52.198;9.890;2023-06-05T16:00:17;27.70;97.40
20722;DHT22;10522;52.198;9.890;2023-06-05T16:02:44;28.10;99.90